Terminal Aerodrome Forecast
Issued by NWS Flagstaff, AZ

Home | Current Version | Previous Version | Text Only | Print | Product List | Glossary On
Versions: 1 2 3 4 5 6 7 8 9 10 11 12
577
FTUS45 KFGZ 121131
TAFFLG
TAF
KFLG 121131Z 1212/1312 VRB05KT P6SM SKC
      TEMPO 1219/1223 09007KT=

USA.gov is the U.S. government's official web portal to all federal, state and local government web resources and services.